SBCR/CMG METAR and TAF weather

Enter ICAO airport designator
Station Type Date Time Source
SBCR METAR 2021/08/04 21:00 UTC NOAA

SBCR 042100Z VRB01KT CAVOK 27/07 Q1019


Station Type Date Time Source
SBCR Decoded METAR 2021/08/04 21:00 UTC NOAA

Corumba, Brazil (SBCR) 19-05S 057-30W
Aug 04, 2021 - 05:00 PM EDT / 2021.08.04 2100 UTC
Wind: Variable at 1 MPH (1 KT):0
Visibility: greater than 7 mile(s):0
Temperature: 80 F (27 C)
Dew Point: 44 F (7 C)
Relative Humidity: 28%
Pressure (altimeter): 30.09 in. Hg (1019 hPa)
ob: SBCR 042100Z VRB01KT CAVOK 27/07 Q1019
cycle: 21

Station Type Date Time Source
SBCR TAF 2021/08/05 06:21 UTC NOAA

TAF TAF SBCR 050400Z 0506/0606 VRB03KT CAVOK TN13/0509Z TX30/0517Z
BECMG 0510/0512 08003KT
TEMPO 0513/0517 05004KT
BECMG 0517/0519 13004KT
TEMPO 0603/0606 21004KT
RMK PGO

Example: see airport list